sensor_id;sensor_type;location;lat;lon;timestamp;temperature;humidity
78779;DHT22;68121;52.404;5.318;2023-04-22T00:00:39;10.00;71.90
78779;DHT22;68121;52.404;5.318;2023-04-22T00:03:05;10.00;72.00
78779;DHT22;68121;52.404;5.318;2023-04-22T00:05:33;10.00;72.00
78779;DHT22;68121;52.404;5.318;2023-04-22T00:07:59;9.90;72.00
78779;DHT22;68121;52.404;5.318;2023-04-22T00:10:26;9.80;72.00
78779;DHT22;68121;52.404;5.318;2023-04-22T00:12:52;9.80;72.10
78779;DHT22;68121;52.404;5.318;2023-04-22T00:15:18;9.70;72.10
78779;DHT22;68121;52.404;5.318;2023-04-22T00:17:47;9.70;72.20
78779;DHT22;68121;52.404;5.318;2023-04-22T00:20:13;9.60;72.20
78779;DHT22;68121;52.404;5.318;2023-04-22T00:22:40;9.60;72.30
78779;DHT22;68121;52.404;5.318;2023-04-22T00:25:06;9.60;72.40
78779;DHT22;68121;52.404;5.318;2023-04-22T00:27:32;9.60;72.40
78779;DHT22;68121;52.404;5.318;2023-04-22T00:29:59;9.60;72.40
78779;DHT22;68121;52.404;5.318;2023-04-22T00:32:25;9.60;72.50
78779;DHT22;68121;52.404;5.318;2023-04-22T00:34:51;9.60;72.40
78779;DHT22;68121;52.404;5.318;2023-04-22T00:37:17;9.60;72.40
78779;DHT22;68121;52.404;5.318;2023-04-22T00:39:43;9.60;72.40
78779;DHT22;68121;52.404;5.318;2023-04-22T00:42:09;9.60;72.40
78779;DHT22;68121;52.404;5.318;2023-04-22T00:44:36;9.60;72.40
78779;DHT22;68121;52.404;5.318;2023-04-22T00:47:03;9.60;72.40
78779;DHT22;68121;52.404;5.318;2023-04-22T00:49:29;9.50;72.50
78779;DHT22;68121;52.404;5.318;2023-04-22T00:51:56;9.50;72.50
78779;DHT22;68121;52.404;5.318;2023-04-22T00:54:22;9.40;72.50
78779;DHT22;68121;52.404;5.318;2023-04-22T00:56:48;9.40;72.60
78779;DHT22;68121;52.404;5.318;2023-04-22T00:59:14;9.40;72.60
78779;DHT22;68121;52.404;5.318;2023-04-22T01:01:40;9.30;72.70
78779;DHT22;68121;52.404;5.318;2023-04-22T01:04:07;9.30;72.70
78779;DHT22;68121;52.404;5.318;2023-04-22T01:06:36;9.20;72.80
78779;DHT22;68121;52.404;5.318;2023-04-22T01:09:03;9.30;72.80
78779;DHT22;68121;52.404;5.318;2023-04-22T01:11:29;9.40;72.70
78779;DHT22;68121;52.404;5.318;2023-04-22T01:13:55;9.30;72.70
78779;DHT22;68121;52.404;5.318;2023-04-22T01:16:22;9.30;72.70
78779;DHT22;68121;52.404;5.318;2023-04-22T01:18:48;9.30;72.80
78779;DHT22;68121;52.404;5.318;2023-04-22T01:21:14;9.30;72.90
78779;DHT22;68121;52.404;5.318;2023-04-22T01:23:41;9.40;72.80
78779;DHT22;68121;52.404;5.318;2023-04-22T01:26:07;9.30;72.70
78779;DHT22;68121;52.404;5.318;2023-04-22T01:28:34;9.20;72.70
78779;DHT22;68121;52.404;5.318;2023-04-22T01:31:00;9.20;72.80
78779;DHT22;68121;52.404;5.318;2023-04-22T01:33:26;9.20;72.80
78779;DHT22;68121;52.404;5.318;2023-04-22T01:35:52;9.10;72.90
78779;DHT22;68121;52.404;5.318;2023-04-22T01:38:18;9.00;72.80
78779;DHT22;68121;52.404;5.318;2023-04-22T01:40:44;9.00;72.90
78779;DHT22;68121;52.404;5.318;2023-04-22T01:43:10;9.00;72.90
78779;DHT22;68121;52.404;5.318;2023-04-22T01:45:36;9.00;72.90
78779;DHT22;68121;52.404;5.318;2023-04-22T01:48:04;9.00;73.00
78779;DHT22;68121;52.404;5.318;2023-04-22T01:50:32;9.00;73.00
78779;DHT22;68121;52.404;5.318;2023-04-22T01:52:58;8.90;73.00
78779;DHT22;68121;52.404;5.318;2023-04-22T01:55:25;8.90;73.10
78779;DHT22;68121;52.404;5.318;2023-04-22T01:57:51;8.90;73.10
78779;DHT22;68121;52.404;5.318;2023-04-22T02:00:17;8.80;73.10
78779;DHT22;68121;52.404;5.318;2023-04-22T02:02:43;8.80;73.20
78779;DHT22;68121;52.404;5.318;2023-04-22T02:05:10;8.80;73.30
78779;DHT22;68121;52.404;5.318;2023-04-22T02:07:36;8.80;73.30
78779;DHT22;68121;52.404;5.318;2023-04-22T02:10:04;8.80;73.30
78779;DHT22;68121;52.404;5.318;2023-04-22T02:12:30;8.80;73.40
78779;DHT22;68121;52.404;5.318;2023-04-22T02:14:57;8.80;73.40
78779;DHT22;68121;52.404;5.318;2023-04-22T02:17:23;8.80;73.40
78779;DHT22;68121;52.404;5.318;2023-04-22T02:19:49;8.80;73.30
78779;DHT22;68121;52.404;5.318;2023-04-22T02:22:16;8.80;73.30
78779;DHT22;68121;52.404;5.318;2023-04-22T02:24:42;8.80;73.40
78779;DHT22;68121;52.404;5.318;2023-04-22T02:27:08;8.80;73.40
78779;DHT22;68121;52.404;5.318;2023-04-22T02:29:34;8.80;73.30
78779;DHT22;68121;52.404;5.318;2023-04-22T02:32:00;8.80;73.30
78779;DHT22;68121;52.404;5.318;2023-04-22T02:34:26;8.70;73.40
78779;DHT22;68121;52.404;5.318;2023-04-22T02:36:53;8.70;73.40
78779;DHT22;68121;52.404;5.318;2023-04-22T02:39:19;8.70;73.30
78779;DHT22;68121;52.404;5.318;2023-04-22T02:41:45;8.60;73.30
78779;DHT22;68121;52.404;5.318;2023-04-22T02:44:11;8.60;73.30
78779;DHT22;68121;52.404;5.318;2023-04-22T02:46:37;8.60;73.40
78779;DHT22;68121;52.404;5.318;2023-04-22T02:49:03;8.60;73.40
78779;DHT22;68121;52.404;5.318;2023-04-22T02:51:29;8.60;73.40
78779;DHT22;68121;52.404;5.318;2023-04-22T02:53:56;8.60;73.40
78779;DHT22;68121;52.404;5.318;2023-04-22T02:56:22;8.50;73.30
78779;DHT22;68121;52.404;5.318;2023-04-22T02:58:48;8.50;73.30
78779;DHT22;68121;52.404;5.318;2023-04-22T03:01:14;8.50;73.40
78779;DHT22;68121;52.404;5.318;2023-04-22T03:03:41;8.50;73.40
78779;DHT22;68121;52.404;5.318;2023-04-22T03:06:07;8.50;73.40
78779;DHT22;68121;52.404;5.318;2023-04-22T03:08:33;8.50;73.40
78779;DHT22;68121;52.404;5.318;2023-04-22T03:10:59;8.50;73.40
78779;DHT22;68121;52.404;5.318;2023-04-22T03:13:25;8.50;73.40
78779;DHT22;68121;52.404;5.318;2023-04-22T03:15:51;8.40;73.40
78779;DHT22;68121;52.404;5.318;2023-04-22T03:18:17;8.50;73.40
78779;DHT22;68121;52.404;5.318;2023-04-22T03:20:43;8.50;73.30
78779;DHT22;68121;52.404;5.318;2023-04-22T03:23:09;8.40;73.40
78779;DHT22;68121;52.404;5.318;2023-04-22T03:25:35;8.40;73.40
78779;DHT22;68121;52.404;5.318;2023-04-22T03:28:02;8.40;73.40
78779;DHT22;68121;52.404;5.318;2023-04-22T03:30:28;8.40;73.40
78779;DHT22;68121;52.404;5.318;2023-04-22T03:32:55;8.40;73.40
78779;DHT22;68121;52.404;5.318;2023-04-22T03:35:21;8.40;73.30
78779;DHT22;68121;52.404;5.318;2023-04-22T03:37:47;8.40;73.30
78779;DHT22;68121;52.404;5.318;2023-04-22T03:40:13;8.40;73.30
78779;DHT22;68121;52.404;5.318;2023-04-22T03:42:39;8.30;73.30
78779;DHT22;68121;52.404;5.318;2023-04-22T03:45:06;8.30;73.40
78779;DHT22;68121;52.404;5.318;2023-04-22T03:47:32;8.30;73.40
78779;DHT22;68121;52.404;5.318;2023-04-22T03:49:58;8.30;73.40
78779;DHT22;68121;52.404;5.318;2023-04-22T03:52:24;8.30;73.30
78779;DHT22;68121;52.404;5.318;2023-04-22T03:54:50;8.30;73.40
78779;DHT22;68121;52.404;5.318;2023-04-22T03:57:16;8.30;73.40
78779;DHT22;68121;52.404;5.318;2023-04-22T03:59:42;8.20;73.40
78779;DHT22;68121;52.404;5.318;2023-04-22T04:02:08;8.20;73.40
78779;DHT22;68121;52.404;5.318;2023-04-22T04:04:36;8.20;73.30
78779;DHT22;68121;52.404;5.318;2023-04-22T04:07:02;8.20;73.30
78779;DHT22;68121;52.404;5.318;2023-04-22T04:09:28;8.20;73.20
78779;DHT22;68121;52.404;5.318;2023-04-22T04:11:54;8.20;73.20
78779;DHT22;68121;52.404;5.318;2023-04-22T04:14:21;8.10;73.30
78779;DHT22;68121;52.404;5.318;2023-04-22T04:16:47;8.00;73.30
78779;DHT22;68121;52.404;5.318;2023-04-22T04:19:13;8.00;73.40
78779;DHT22;68121;52.404;5.318;2023-04-22T04:21:39;8.00;73.40
78779;DHT22;68121;52.404;5.318;2023-04-22T04:24:06;8.00;73.50
78779;DHT22;68121;52.404;5.318;2023-04-22T04:26:32;8.00;73.50
78779;DHT22;68121;52.404;5.318;2023-04-22T04:28:59;8.00;73.50
78779;DHT22;68121;52.404;5.318;2023-04-22T04:31:28;8.00;73.50
78779;DHT22;68121;52.404;5.318;2023-04-22T04:33:54;8.00;73.50
78779;DHT22;68121;52.404;5.318;2023-04-22T04:36:22;8.00;73.50
78779;DHT22;68121;52.404;5.318;2023-04-22T04:38:54;8.10;73.40
78779;DHT22;68121;52.404;5.318;2023-04-22T04:41:21;8.10;73.40
78779;DHT22;68121;52.404;5.318;2023-04-22T04:43:47;8.10;73.30
78779;DHT22;68121;52.404;5.318;2023-04-22T04:46:13;8.10;73.30
78779;DHT22;68121;52.404;5.318;2023-04-22T04:48:42;8.20;73.30
78779;DHT22;68121;52.404;5.318;2023-04-22T04:51:10;8.20;73.30
78779;DHT22;68121;52.404;5.318;2023-04-22T04:53:37;8.20;73.20
78779;DHT22;68121;52.404;5.318;2023-04-22T04:56:03;8.20;73.20
78779;DHT22;68121;52.404;5.318;2023-04-22T04:58:29;8.20;73.20
78779;DHT22;68121;52.404;5.318;2023-04-22T05:00:55;8.20;73.20
78779;DHT22;68121;52.404;5.318;2023-04-22T05:03:21;8.20;73.30
78779;DHT22;68121;52.404;5.318;2023-04-22T05:05:47;8.30;73.40
78779;DHT22;68121;52.404;5.318;2023-04-22T05:08:14;8.30;73.40
78779;DHT22;68121;52.404;5.318;2023-04-22T05:10:40;8.30;73.30
78779;DHT22;68121;52.404;5.318;2023-04-22T05:13:07;8.30;73.20
78779;DHT22;68121;52.404;5.318;2023-04-22T05:15:33;8.40;73.30
78779;DHT22;68121;52.404;5.318;2023-04-22T05:17:59;8.50;73.10
78779;DHT22;68121;52.404;5.318;2023-04-22T05:20:25;8.50;73.00
78779;DHT22;68121;52.404;5.318;2023-04-22T05:22:51;8.50;73.00
78779;DHT22;68121;52.404;5.318;2023-04-22T05:25:17;8.50;72.90
78779;DHT22;68121;52.404;5.318;2023-04-22T05:27:43;8.50;72.90
78779;DHT22;68121;52.404;5.318;2023-04-22T05:30:09;8.50;73.00
78779;DHT22;68121;52.404;5.318;2023-04-22T05:32:38;8.40;73.10
78779;DHT22;68121;52.404;5.318;2023-04-22T05:35:05;8.40;73.20
78779;DHT22;68121;52.404;5.318;2023-04-22T05:37:31;8.50;73.20
78779;DHT22;68121;52.404;5.318;2023-04-22T05:39:57;8.50;73.20
78779;DHT22;68121;52.404;5.318;2023-04-22T05:42:23;8.50;73.20
78779;DHT22;68121;52.404;5.318;2023-04-22T05:44:49;8.60;73.20
78779;DHT22;68121;52.404;5.318;2023-04-22T05:47:16;8.60;73.30
78779;DHT22;68121;52.404;5.318;2023-04-22T05:49:42;8.60;73.40
78779;DHT22;68121;52.404;5.318;2023-04-22T05:52:08;8.60;73.40
78779;DHT22;68121;52.404;5.318;2023-04-22T05:54:34;8.60;73.40
78779;DHT22;68121;52.404;5.318;2023-04-22T05:57:00;8.60;73.40
78779;DHT22;68121;52.404;5.318;2023-04-22T05:59:27;8.60;73.50
78779;DHT22;68121;52.404;5.318;2023-04-22T06:01:53;8.70;73.50
78779;DHT22;68121;52.404;5.318;2023-04-22T06:04:19;8.70;73.60
78779;DHT22;68121;52.404;5.318;2023-04-22T06:06:45;8.80;73.60
78779;DHT22;68121;52.404;5.318;2023-04-22T06:09:12;8.80;73.70
78779;DHT22;68121;52.404;5.318;2023-04-22T06:11:38;8.80;73.70
78779;DHT22;68121;52.404;5.318;2023-04-22T06:14:05;8.90;73.70
78779;DHT22;68121;52.404;5.318;2023-04-22T06:16:32;9.00;73.70
78779;DHT22;68121;52.404;5.318;2023-04-22T06:18:58;9.00;73.80
78779;DHT22;68121;52.404;5.318;2023-04-22T06:21:24;9.00;73.80
78779;DHT22;68121;52.404;5.318;2023-04-22T06:23:50;9.10;73.90
78779;DHT22;68121;52.404;5.318;2023-04-22T06:26:16;9.20;73.80
78779;DHT22;68121;52.404;5.318;2023-04-22T06:28:42;9.20;73.90
78779;DHT22;68121;52.404;5.318;2023-04-22T06:31:08;9.20;74.10
78779;DHT22;68121;52.404;5.318;2023-04-22T06:33:35;9.20;74.10
78779;DHT22;68121;52.404;5.318;2023-04-22T06:36:01;9.40;74.10
78779;DHT22;68121;52.404;5.318;2023-04-22T06:38:27;9.40;74.10
78779;DHT22;68121;52.404;5.318;2023-04-22T06:40:53;9.40;74.10
78779;DHT22;68121;52.404;5.318;2023-04-22T06:43:19;9.50;74.10
78779;DHT22;68121;52.404;5.318;2023-04-22T06:45:45;9.50;74.10
78779;DHT22;68121;52.404;5.318;2023-04-22T06:48:11;9.60;74.10
78779;DHT22;68121;52.404;5.318;2023-04-22T06:50:37;9.60;74.10
78779;DHT22;68121;52.404;5.318;2023-04-22T06:53:03;9.70;74.10
78779;DHT22;68121;52.404;5.318;2023-04-22T06:55:29;9.70;74.10
78779;DHT22;68121;52.404;5.318;2023-04-22T06:57:55;9.80;74.10
78779;DHT22;68121;52.404;5.318;2023-04-22T07:00:21;9.80;74.20
78779;DHT22;68121;52.404;5.318;2023-04-22T07:02:47;9.80;74.20
78779;DHT22;68121;52.404;5.318;2023-04-22T07:05:14;9.90;74.20
78779;DHT22;68121;52.404;5.318;2023-04-22T07:07:40;9.90;74.30
78779;DHT22;68121;52.404;5.318;2023-04-22T07:10:06;10.00;74.30
78779;DHT22;68121;52.404;5.318;2023-04-22T07:12:33;10.00;74.30
78779;DHT22;68121;52.404;5.318;2023-04-22T07:14:59;10.00;74.40
78779;DHT22;68121;52.404;5.318;2023-04-22T07:17:25;10.10;74.40
78779;DHT22;68121;52.404;5.318;2023-04-22T07:19:51;10.00;74.40
78779;DHT22;68121;52.404;5.318;2023-04-22T07:22:18;10.00;74.40
78779;DHT22;68121;52.404;5.318;2023-04-22T07:24:44;10.10;74.50
78779;DHT22;68121;52.404;5.318;2023-04-22T07:27:10;10.10;74.40
78779;DHT22;68121;52.404;5.318;2023-04-22T07:29:36;10.20;74.50
78779;DHT22;68121;52.404;5.318;2023-04-22T07:32:02;10.30;74.50
78779;DHT22;68121;52.404;5.318;2023-04-22T07:34:28;10.30;74.50
78779;DHT22;68121;52.404;5.318;2023-04-22T07:36:54;10.40;74.40
78779;DHT22;68121;52.404;5.318;2023-04-22T07:39:21;10.50;74.30
78779;DHT22;68121;52.404;5.318;2023-04-22T07:41:47;10.60;74.20
78779;DHT22;68121;52.404;5.318;2023-04-22T07:44:13;10.60;74.20
78779;DHT22;68121;52.404;5.318;2023-04-22T07:46:43;10.70;74.20
78779;DHT22;68121;52.404;5.318;2023-04-22T07:49:09;10.80;74.10
78779;DHT22;68121;52.404;5.318;2023-04-22T07:51:35;10.80;74.10
78779;DHT22;68121;52.404;5.318;2023-04-22T07:54:01;10.90;74.10
78779;DHT22;68121;52.404;5.318;2023-04-22T07:56:27;11.00;74.10
78779;DHT22;68121;52.404;5.318;2023-04-22T07:58:53;11.00;74.00
78779;DHT22;68121;52.404;5.318;2023-04-22T08:01:19;11.10;74.00
78779;DHT22;68121;52.404;5.318;2023-04-22T08:03:45;11.20;74.00
78779;DHT22;68121;52.404;5.318;2023-04-22T08:06:11;11.40;73.80
78779;DHT22;68121;52.404;5.318;2023-04-22T08:08:37;11.50;73.50
78779;DHT22;68121;52.404;5.318;2023-04-22T08:11:03;11.60;73.50
78779;DHT22;68121;52.404;5.318;2023-04-22T08:13:29;11.70;73.30
78779;DHT22;68121;52.404;5.318;2023-04-22T08:15:56;11.70;73.20
78779;DHT22;68121;52.404;5.318;2023-04-22T08:18:22;11.70;73.20
78779;DHT22;68121;52.404;5.318;2023-04-22T08:20:49;11.90;73.10
78779;DHT22;68121;52.404;5.318;2023-04-22T08:23:15;11.90;73.00
78779;DHT22;68121;52.404;5.318;2023-04-22T08:25:41;12.10;72.80
78779;DHT22;68121;52.404;5.318;2023-04-22T08:28:07;12.10;72.50
78779;DHT22;68121;52.404;5.318;2023-04-22T08:30:33;12.10;72.50
78779;DHT22;68121;52.404;5.318;2023-04-22T08:32:59;12.20;72.50
78779;DHT22;68121;52.404;5.318;2023-04-22T08:35:25;12.40;72.30
78779;DHT22;68121;52.404;5.318;2023-04-22T08:37:51;12.50;72.30
78779;DHT22;68121;52.404;5.318;2023-04-22T08:40:18;12.80;72.00
78779;DHT22;68121;52.404;5.318;2023-04-22T08:42:44;13.00;71.50
78779;DHT22;68121;52.404;5.318;2023-04-22T08:45:10;13.20;71.20
78779;DHT22;68121;52.404;5.318;2023-04-22T08:47:38;13.40;70.90
78779;DHT22;68121;52.404;5.318;2023-04-22T08:50:05;13.70;70.50
78779;DHT22;68121;52.404;5.318;2023-04-22T08:52:33;14.00;70.10
78779;DHT22;68121;52.404;5.318;2023-04-22T08:54:59;14.20;69.80
78779;DHT22;68121;52.404;5.318;2023-04-22T08:57:25;14.30;69.40
78779;DHT22;68121;52.404;5.318;2023-04-22T08:59:52;14.50;69.20
78779;DHT22;68121;52.404;5.318;2023-04-22T09:02:21;14.60;69.00
78779;DHT22;68121;52.404;5.318;2023-04-22T09:04:49;14.70;68.70
78779;DHT22;68121;52.404;5.318;2023-04-22T09:07:21;14.70;68.60
78779;DHT22;68121;52.404;5.318;2023-04-22T09:09:47;14.80;68.50
78779;DHT22;68121;52.404;5.318;2023-04-22T09:12:13;14.90;68.60
78779;DHT22;68121;52.404;5.318;2023-04-22T09:14:40;15.20;68.20
78779;DHT22;68121;52.404;5.318;2023-04-22T09:17:06;15.50;67.70
78779;DHT22;68121;52.404;5.318;2023-04-22T09:19:32;15.60;67.30
78779;DHT22;68121;52.404;5.318;2023-04-22T09:21:58;15.70;67.00
78779;DHT22;68121;52.404;5.318;2023-04-22T09:24:24;15.80;66.70
78779;DHT22;68121;52.404;5.318;2023-04-22T09:26:50;15.90;66.40
78779;DHT22;68121;52.404;5.318;2023-04-22T09:29:16;16.00;66.00
78779;DHT22;68121;52.404;5.318;2023-04-22T09:31:52;16.00;65.80
78779;DHT22;68121;52.404;5.318;2023-04-22T09:34:20;16.00;65.50
78779;DHT22;68121;52.404;5.318;2023-04-22T09:36:49;16.10;65.30
78779;DHT22;68121;52.404;5.318;2023-04-22T09:39:17;16.20;65.20
78779;DHT22;68121;52.404;5.318;2023-04-22T09:41:43;16.30;64.90
78779;DHT22;68121;52.404;5.318;2023-04-22T09:44:13;16.30;64.70
78779;DHT22;68121;52.404;5.318;2023-04-22T09:46:43;16.30;64.70
78779;DHT22;68121;52.404;5.318;2023-04-22T09:49:10;16.20;64.60
78779;DHT22;68121;52.404;5.318;2023-04-22T09:51:39;16.10;64.80
78779;DHT22;68121;52.404;5.318;2023-04-22T09:54:07;16.10;64.80
78779;DHT22;68121;52.404;5.318;2023-04-22T09:56:43;16.40;64.80
78779;DHT22;68121;52.404;5.318;2023-04-22T09:59:11;16.60;64.50
78779;DHT22;68121;52.404;5.318;2023-04-22T10:01:38;16.70;64.20
78779;DHT22;68121;52.404;5.318;2023-04-22T10:04:09;16.70;64.00
78779;DHT22;68121;52.404;5.318;2023-04-22T10:06:36;16.50;64.20
78779;DHT22;68121;52.404;5.318;2023-04-22T10:09:03;16.50;64.60
78779;DHT22;68121;52.404;5.318;2023-04-22T10:11:30;16.60;64.60
78779;DHT22;68121;52.404;5.318;2023-04-22T10:13:57;16.90;64.40
78779;DHT22;68121;52.404;5.318;2023-04-22T10:16:27;17.20;64.20
78779;DHT22;68121;52.404;5.318;2023-04-22T10:18:55;17.40;63.80
78779;DHT22;68121;52.404;5.318;2023-04-22T10:21:24;17.60;63.60
78779;DHT22;68121;52.404;5.318;2023-04-22T10:23:51;17.80;63.30
78779;DHT22;68121;52.404;5.318;2023-04-22T10:26:37;17.80;63.10
78779;DHT22;68121;52.404;5.318;2023-04-22T10:29:08;17.80;63.20
78779;DHT22;68121;52.404;5.318;2023-04-22T10:31:37;18.00;63.40
78779;DHT22;68121;52.404;5.318;2023-04-22T10:34:11;18.00;63.20
78779;DHT22;68121;52.404;5.318;2023-04-22T10:36:57;18.10;62.90
78779;DHT22;68121;52.404;5.318;2023-04-22T10:39:24;18.10;62.60
78779;DHT22;68121;52.404;5.318;2023-04-22T10:42:11;18.20;62.70
78779;DHT22;68121;52.404;5.318;2023-04-22T10:44:54;18.30;62.30
78779;DHT22;68121;52.404;5.318;2023-04-22T10:47:33;18.40;62.30
78779;DHT22;68121;52.404;5.318;2023-04-22T10:50:22;18.50;62.40
78779;DHT22;68121;52.404;5.318;2023-04-22T10:52:59;18.70;62.40
78779;DHT22;68121;52.404;5.318;2023-04-22T10:55:48;19.00;62.00
78779;DHT22;68121;52.404;5.318;2023-04-22T10:58:22;19.00;61.40
78779;DHT22;68121;52.404;5.318;2023-04-22T11:00:51;19.00;61.60
78779;DHT22;68121;52.404;5.318;2023-04-22T11:03:29;19.00;61.60
78779;DHT22;68121;52.404;5.318;2023-04-22T11:06:25;19.00;61.60
78779;DHT22;68121;52.404;5.318;2023-04-22T11:09:07;19.10;61.30
78779;DHT22;68121;52.404;5.318;2023-04-22T11:11:34;19.20;61.30
78779;DHT22;68121;52.404;5.318;2023-04-22T11:14:00;19.10;61.50
78779;DHT22;68121;52.404;5.318;2023-04-22T11:16:26;19.00;61.50
78779;DHT22;68121;52.404;5.318;2023-04-22T11:18:54;18.90;61.50
78779;DHT22;68121;52.404;5.318;2023-04-22T11:21:21;18.60;61.50
78779;DHT22;68121;52.404;5.318;2023-04-22T11:23:51;18.30;61.80
78779;DHT22;68121;52.404;5.318;2023-04-22T11:26:18;18.00;62.00
78779;DHT22;68121;52.404;5.318;2023-04-22T11:28:58;17.60;62.30
78779;DHT22;68121;52.404;5.318;2023-04-22T11:31:25;17.40;62.30
78779;DHT22;68121;52.404;5.318;2023-04-22T11:33:51;17.00;62.50
78779;DHT22;68121;52.404;5.318;2023-04-22T11:36:17;16.80;62.70
78779;DHT22;68121;52.404;5.318;2023-04-22T11:38:56;16.50;62.90
78779;DHT22;68121;52.404;5.318;2023-04-22T11:41:22;16.40;62.90
78779;DHT22;68121;52.404;5.318;2023-04-22T11:43:48;16.10;63.20
78779;DHT22;68121;52.404;5.318;2023-04-22T11:46:15;16.10;63.30
78779;DHT22;68121;52.404;5.318;2023-04-22T11:48:41;16.00;63.20
78779;DHT22;68121;52.404;5.318;2023-04-22T11:51:10;15.90;63.20
78779;DHT22;68121;52.404;5.318;2023-04-22T11:53:37;15.80;63.10
78779;DHT22;68121;52.404;5.318;2023-04-22T11:56:04;15.60;63.20
78779;DHT22;68121;52.404;5.318;2023-04-22T11:58:30;15.50;63.30
78779;DHT22;68121;52.404;5.318;2023-04-22T12:00:58;15.40;63.30
78779;DHT22;68121;52.404;5.318;2023-04-22T12:03:26;15.20;63.40
78779;DHT22;68121;52.404;5.318;2023-04-22T12:05:53;15.00;63.40
78779;DHT22;68121;52.404;5.318;2023-04-22T12:08:22;15.00;63.40
78779;DHT22;68121;52.404;5.318;2023-04-22T12:10:53;15.00;63.40
78779;DHT22;68121;52.404;5.318;2023-04-22T12:13:38;14.90;63.50
78779;DHT22;68121;52.404;5.318;2023-04-22T12:16:14;14.80;63.50
78779;DHT22;68121;52.404;5.318;2023-04-22T12:21:16;14.70;64.20
78779;DHT22;68121;52.404;5.318;2023-04-22T12:23:43;14.70;64.40
78779;DHT22;68121;52.404;5.318;2023-04-22T12:26:10;14.70;64.70
78779;DHT22;68121;52.404;5.318;2023-04-22T12:28:37;14.60;65.10
78779;DHT22;68121;52.404;5.318;2023-04-22T12:31:03;14.60;65.20
78779;DHT22;68121;52.404;5.318;2023-04-22T12:33:29;14.50;65.50
78779;DHT22;68121;52.404;5.318;2023-04-22T12:35:55;14.50;65.80
78779;DHT22;68121;52.404;5.318;2023-04-22T12:38:21;14.50;66.20
78779;DHT22;68121;52.404;5.318;2023-04-22T12:40:47;14.50;66.40
78779;DHT22;68121;52.404;5.318;2023-04-22T12:43:13;14.50;66.30
78779;DHT22;68121;52.404;5.318;2023-04-22T12:45:42;14.50;66.50
78779;DHT22;68121;52.404;5.318;2023-04-22T12:48:11;14.40;66.70
78779;DHT22;68121;52.404;5.318;2023-04-22T12:50:38;14.40;66.80
78779;DHT22;68121;52.404;5.318;2023-04-22T12:53:04;14.30;66.80
78779;DHT22;68121;52.404;5.318;2023-04-22T12:55:30;14.20;67.00
78779;DHT22;68121;52.404;5.318;2023-04-22T12:57:56;14.00;67.20
78779;DHT22;68121;52.404;5.318;2023-04-22T13:00:22;13.90;67.50
78779;DHT22;68121;52.404;5.318;2023-04-22T13:02:49;13.90;67.60
78779;DHT22;68121;52.404;5.318;2023-04-22T13:05:16;13.90;67.90
78779;DHT22;68121;52.404;5.318;2023-04-22T13:07:43;13.90;68.20
78779;DHT22;68121;52.404;5.318;2023-04-22T13:10:11;13.90;68.20
78779;DHT22;68121;52.404;5.318;2023-04-22T13:12:38;13.90;68.30
78779;DHT22;68121;52.404;5.318;2023-04-22T13:15:05;13.90;68.50
78779;DHT22;68121;52.404;5.318;2023-04-22T13:17:32;13.90;68.50
78779;DHT22;68121;52.404;5.318;2023-04-22T13:19:58;13.90;68.70
78779;DHT22;68121;52.404;5.318;2023-04-22T13:22:24;13.90;68.80
78779;DHT22;68121;52.404;5.318;2023-04-22T13:24:50;13.70;68.80
78779;DHT22;68121;52.404;5.318;2023-04-22T13:27:16;13.70;69.00
78779;DHT22;68121;52.404;5.318;2023-04-22T13:29:43;13.60;69.20
78779;DHT22;68121;52.404;5.318;2023-04-22T13:32:09;13.50;69.40
78779;DHT22;68121;52.404;5.318;2023-04-22T13:34:36;13.50;69.40
78779;DHT22;68121;52.404;5.318;2023-04-22T13:37:03;13.50;69.40
78779;DHT22;68121;52.404;5.318;2023-04-22T13:39:29;13.40;69.40
78779;DHT22;68121;52.404;5.318;2023-04-22T13:41:56;13.30;69.40
78779;DHT22;68121;52.404;5.318;2023-04-22T13:44:23;13.30;69.40
78779;DHT22;68121;52.404;5.318;2023-04-22T13:46:49;13.30;69.50
78779;DHT22;68121;52.404;5.318;2023-04-22T13:49:15;13.30;69.50
78779;DHT22;68121;52.404;5.318;2023-04-22T13:51:41;13.30;69.50
78779;DHT22;68121;52.404;5.318;2023-04-22T13:54:07;13.30;69.30
78779;DHT22;68121;52.404;5.318;2023-04-22T13:56:33;13.30;69.40
78779;DHT22;68121;52.404;5.318;2023-04-22T13:58:59;13.30;69.40
78779;DHT22;68121;52.404;5.318;2023-04-22T14:01:26;13.30;69.60
78779;DHT22;68121;52.404;5.318;2023-04-22T14:03:53;13.40;69.60
78779;DHT22;68121;52.404;5.318;2023-04-22T14:06:20;13.40;69.70
78779;DHT22;68121;52.404;5.318;2023-04-22T14:08:46;13.50;69.80
78779;DHT22;68121;52.404;5.318;2023-04-22T14:11:12;13.50;70.00
78779;DHT22;68121;52.404;5.318;2023-04-22T14:13:38;13.50;70.10
78779;DHT22;68121;52.404;5.318;2023-04-22T14:16:05;13.50;70.10
78779;DHT22;68121;52.404;5.318;2023-04-22T14:18:37;13.50;70.10
78779;DHT22;68121;52.404;5.318;2023-04-22T14:21:04;13.50;70.20
78779;DHT22;68121;52.404;5.318;2023-04-22T14:23:32;13.40;70.20
78779;DHT22;68121;52.404;5.318;2023-04-22T14:25:58;13.30;70.30
78779;DHT22;68121;52.404;5.318;2023-04-22T14:28:25;13.30;70.30
78779;DHT22;68121;52.404;5.318;2023-04-22T14:30:52;13.30;70.30
78779;DHT22;68121;52.404;5.318;2023-04-22T14:33:18;13.30;70.40
78779;DHT22;68121;52.404;5.318;2023-04-22T14:35:44;13.10;70.50
78779;DHT22;68121;52.404;5.318;2023-04-22T14:38:11;13.10;70.60
78779;DHT22;68121;52.404;5.318;2023-04-22T14:40:37;13.10;70.70
78779;DHT22;68121;52.404;5.318;2023-04-22T14:43:05;13.10;70.70
78779;DHT22;68121;52.404;5.318;2023-04-22T14:45:31;13.10;70.70
78779;DHT22;68121;52.404;5.318;2023-04-22T14:47:58;13.10;70.60
78779;DHT22;68121;52.404;5.318;2023-04-22T14:50:24;13.10;70.80
78779;DHT22;68121;52.404;5.318;2023-04-22T14:52:52;13.10;70.80
78779;DHT22;68121;52.404;5.318;2023-04-22T14:55:18;13.10;70.90
78779;DHT22;68121;52.404;5.318;2023-04-22T14:57:45;13.10;70.90
78779;DHT22;68121;52.404;5.318;2023-04-22T15:00:12;13.10;70.90
78779;DHT22;68121;52.404;5.318;2023-04-22T15:02:39;13.10;70.80
78779;DHT22;68121;52.404;5.318;2023-04-22T15:05:05;13.10;70.90
78779;DHT22;68121;52.404;5.318;2023-04-22T15:07:31;13.10;71.00
78779;DHT22;68121;52.404;5.318;2023-04-22T15:09:58;13.00;71.00
78779;DHT22;68121;52.404;5.318;2023-04-22T15:12:24;13.00;71.00
78779;DHT22;68121;52.404;5.318;2023-04-22T15:14:51;13.00;70.90
78779;DHT22;68121;52.404;5.318;2023-04-22T15:17:17;12.90;70.90
78779;DHT22;68121;52.404;5.318;2023-04-22T15:19:43;12.90;71.00
78779;DHT22;68121;52.404;5.318;2023-04-22T15:22:10;12.90;71.10
78779;DHT22;68121;52.404;5.318;2023-04-22T15:24:36;12.90;71.20
78779;DHT22;68121;52.404;5.318;2023-04-22T15:27:02;12.90;71.20
78779;DHT22;68121;52.404;5.318;2023-04-22T15:29:28;12.90;71.40
78779;DHT22;68121;52.404;5.318;2023-04-22T15:31:55;13.10;71.10
78779;DHT22;68121;52.404;5.318;2023-04-22T15:34:22;13.10;70.80
78779;DHT22;68121;52.404;5.318;2023-04-22T15:36:48;13.00;70.80
78779;DHT22;68121;52.404;5.318;2023-04-22T15:39:14;12.90;70.90